sensor_id;sensor_type;location;lat;lon;timestamp;P1;durP1;ratioP1;P2;durP2;ratioP2
53299;SDS011;39187;48.476;8.310;2023-06-10T00:00:25;7.50;;;6.77;;
53299;SDS011;39187;48.476;8.310;2023-06-10T00:02:51;7.60;;;7.30;;
53299;SDS011;39187;48.476;8.310;2023-06-10T00:05:16;6.90;;;6.70;;
53299;SDS011;39187;48.476;8.310;2023-06-10T00:07:46;8.83;;;8.10;;
53299;SDS011;39187;48.476;8.310;2023-06-10T00:10:11;7.90;;;7.30;;
53299;SDS011;39187;48.476;8.310;2023-06-10T00:12:37;8.13;;;7.60;;
53299;SDS011;39187;48.476;8.310;2023-06-10T00:15:04;8.00;;;7.30;;
53299;SDS011;39187;48.476;8.310;2023-06-10T00:17:31;7.53;;;7.13;;
53299;SDS011;39187;48.476;8.310;2023-06-10T00:19:57;8.63;;;8.13;;
53299;SDS011;39187;48.476;8.310;2023-06-10T00:22:23;7.83;;;7.53;;
53299;SDS011;39187;48.476;8.310;2023-06-10T00:24:49;8.03;;;7.63;;
53299;SDS011;39187;48.476;8.310;2023-06-10T00:27:16;7.90;;;7.50;;
53299;SDS011;39187;48.476;8.310;2023-06-10T00:29:41;7.13;;;6.73;;
53299;SDS011;39187;48.476;8.310;2023-06-10T00:32:07;8.43;;;7.97;;
53299;SDS011;39187;48.476;8.310;2023-06-10T00:34:33;7.87;;;7.37;;
53299;SDS011;39187;48.476;8.310;2023-06-10T00:36:58;8.60;;;8.00;;
53299;SDS011;39187;48.476;8.310;2023-06-10T00:39:23;8.47;;;7.87;;
53299;SDS011;39187;48.476;8.310;2023-06-10T00:41:49;8.07;;;7.67;;
53299;SDS011;39187;48.476;8.310;2023-06-10T00:44:15;9.30;;;8.40;;
53299;SDS011;39187;48.476;8.310;2023-06-10T00:46:41;7.80;;;7.20;;
53299;SDS011;39187;48.476;8.310;2023-06-10T00:49:07;8.83;;;8.23;;
53299;SDS011;39187;48.476;8.310;2023-06-10T00:51:33;8.00;;;7.43;;
53299;SDS011;39187;48.476;8.310;2023-06-10T00:54:00;9.63;;;8.17;;
53299;SDS011;39187;48.476;8.310;2023-06-10T00:56:26;8.57;;;7.93;;
53299;SDS011;39187;48.476;8.310;2023-06-10T00:58:52;8.63;;;7.83;;
53299;SDS011;39187;48.476;8.310;2023-06-10T01:01:17;8.40;;;8.00;;
53299;SDS011;39187;48.476;8.310;2023-06-10T01:03:45;9.57;;;8.83;;
53299;SDS011;39187;48.476;8.310;2023-06-10T01:08:46;8.10;;;7.70;;
53299;SDS011;39187;48.476;8.310;2023-06-10T01:11:45;9.43;;;8.50;;
53299;SDS011;39187;48.476;8.310;2023-06-10T01:14:15;9.27;;;8.77;;
53299;SDS011;39187;48.476;8.310;2023-06-10T01:16:42;9.97;;;7.97;;
53299;SDS011;39187;48.476;8.310;2023-06-10T01:19:11;7.70;;;7.20;;
53299;SDS011;39187;48.476;8.310;2023-06-10T01:21:38;13.00;;;9.47;;
53299;SDS011;39187;48.476;8.310;2023-06-10T01:24:04;9.20;;;8.67;;
53299;SDS011;39187;48.476;8.310;2023-06-10T01:26:33;9.00;;;8.27;;
53299;SDS011;39187;48.476;8.310;2023-06-10T01:32:16;8.90;;;8.47;;
53299;SDS011;39187;48.476;8.310;2023-06-10T01:34:46;9.20;;;8.57;;
53299;SDS011;39187;48.476;8.310;2023-06-10T01:37:14;9.07;;;8.57;;
53299;SDS011;39187;48.476;8.310;2023-06-10T01:39:43;10.50;;;8.70;;
53299;SDS011;39187;48.476;8.310;2023-06-10T01:42:11;9.43;;;8.50;;
53299;SDS011;39187;48.476;8.310;2023-06-10T01:44:40;8.23;;;7.77;;
53299;SDS011;39187;48.476;8.310;2023-06-10T01:47:07;10.27;;;8.87;;
53299;SDS011;39187;48.476;8.310;2023-06-10T01:49:34;9.30;;;8.53;;
53299;SDS011;39187;48.476;8.310;2023-06-10T01:51:59;9.23;;;8.43;;
53299;SDS011;39187;48.476;8.310;2023-06-10T01:54:25;8.70;;;8.30;;
53299;SDS011;39187;48.476;8.310;2023-06-10T01:56:51;9.83;;;9.20;;
53299;SDS011;39187;48.476;8.310;2023-06-10T01:59:16;9.47;;;8.77;;
53299;SDS011;39187;48.476;8.310;2023-06-10T02:01:42;8.77;;;8.27;;
53299;SDS011;39187;48.476;8.310;2023-06-10T02:04:07;12.23;;;9.53;;
53299;SDS011;39187;48.476;8.310;2023-06-10T02:06:33;9.07;;;8.57;;
53299;SDS011;39187;48.476;8.310;2023-06-10T02:09:00;9.57;;;8.87;;
53299;SDS011;39187;48.476;8.310;2023-06-10T02:11:26;9.17;;;8.47;;
53299;SDS011;39187;48.476;8.310;2023-06-10T02:13:52;8.27;;;7.83;;
53299;SDS011;39187;48.476;8.310;2023-06-10T02:16:17;8.90;;;8.40;;
53299;SDS011;39187;48.476;8.310;2023-06-10T02:18:43;9.50;;;8.80;;
53299;SDS011;39187;48.476;8.310;2023-06-10T02:21:09;7.90;;;7.60;;
53299;SDS011;39187;48.476;8.310;2023-06-10T02:23:35;9.17;;;8.70;;
53299;SDS011;39187;48.476;8.310;2023-06-10T02:26:01;9.40;;;8.70;;
53299;SDS011;39187;48.476;8.310;2023-06-10T02:28:27;9.50;;;8.73;;
53299;SDS011;39187;48.476;8.310;2023-06-10T02:30:53;8.90;;;8.40;;
53299;SDS011;39187;48.476;8.310;2023-06-10T02:33:18;8.70;;;8.30;;
53299;SDS011;39187;48.476;8.310;2023-06-10T02:35:44;9.37;;;8.77;;
53299;SDS011;39187;48.476;8.310;2023-06-10T02:38:10;9.73;;;9.23;;
53299;SDS011;39187;48.476;8.310;2023-06-10T02:40:36;12.87;;;8.87;;
53299;SDS011;39187;48.476;8.310;2023-06-10T02:43:01;8.63;;;8.13;;
53299;SDS011;39187;48.476;8.310;2023-06-10T02:45:27;9.90;;;9.07;;
53299;SDS011;39187;48.476;8.310;2023-06-10T02:47:52;9.87;;;9.27;;
53299;SDS011;39187;48.476;8.310;2023-06-10T02:50:18;9.10;;;8.40;;
53299;SDS011;39187;48.476;8.310;2023-06-10T02:52:44;9.73;;;8.93;;
53299;SDS011;39187;48.476;8.310;2023-06-10T02:55:09;11.43;;;10.70;;
53299;SDS011;39187;48.476;8.310;2023-06-10T02:57:35;10.07;;;9.47;;
53299;SDS011;39187;48.476;8.310;2023-06-10T03:00:00;9.53;;;8.83;;
53299;SDS011;39187;48.476;8.310;2023-06-10T03:02:27;9.83;;;9.00;;
53299;SDS011;39187;48.476;8.310;2023-06-10T03:04:56;8.73;;;8.33;;
53299;SDS011;39187;48.476;8.310;2023-06-10T03:07:22;9.13;;;8.33;;
53299;SDS011;39187;48.476;8.310;2023-06-10T03:09:48;9.40;;;8.90;;
53299;SDS011;39187;48.476;8.310;2023-06-10T03:12:14;10.10;;;8.90;;
53299;SDS011;39187;48.476;8.310;2023-06-10T03:14:40;9.90;;;9.30;;
53299;SDS011;39187;48.476;8.310;2023-06-10T03:17:06;10.20;;;9.40;;
53299;SDS011;39187;48.476;8.310;2023-06-10T03:19:33;11.30;;;9.27;;
53299;SDS011;39187;48.476;8.310;2023-06-10T03:22:09;10.37;;;9.77;;
53299;SDS011;39187;48.476;8.310;2023-06-10T03:24:36;10.60;;;9.90;;
53299;SDS011;39187;48.476;8.310;2023-06-10T03:27:08;8.90;;;8.50;;
53299;SDS011;39187;48.476;8.310;2023-06-10T03:29:36;10.80;;;9.83;;
53299;SDS011;39187;48.476;8.310;2023-06-10T03:32:02;8.60;;;8.10;;
53299;SDS011;39187;48.476;8.310;2023-06-10T03:34:28;9.03;;;8.63;;
53299;SDS011;39187;48.476;8.310;2023-06-10T03:37:00;10.40;;;9.90;;
53299;SDS011;39187;48.476;8.310;2023-06-10T03:39:26;10.13;;;9.30;;
53299;SDS011;39187;48.476;8.310;2023-06-10T03:41:54;9.17;;;8.77;;
53299;SDS011;39187;48.476;8.310;2023-06-10T03:44:21;9.80;;;9.20;;
53299;SDS011;39187;48.476;8.310;2023-06-10T03:46:46;9.50;;;8.90;;
53299;SDS011;39187;48.476;8.310;2023-06-10T03:49:12;10.50;;;9.80;;
53299;SDS011;39187;48.476;8.310;2023-06-10T03:51:40;9.20;;;8.60;;
53299;SDS011;39187;48.476;8.310;2023-06-10T03:54:05;9.60;;;9.00;;
53299;SDS011;39187;48.476;8.310;2023-06-10T03:56:31;9.47;;;8.80;;
53299;SDS011;39187;48.476;8.310;2023-06-10T03:58:57;9.73;;;8.73;;
53299;SDS011;39187;48.476;8.310;2023-06-10T04:01:22;9.70;;;9.13;;
53299;SDS011;39187;48.476;8.310;2023-06-10T04:03:49;8.10;;;7.73;;
53299;SDS011;39187;48.476;8.310;2023-06-10T04:06:16;9.53;;;8.90;;
53299;SDS011;39187;48.476;8.310;2023-06-10T04:08:42;9.00;;;8.50;;
53299;SDS011;39187;48.476;8.310;2023-06-10T04:11:08;8.60;;;8.03;;
53299;SDS011;39187;48.476;8.310;2023-06-10T04:13:34;8.93;;;8.03;;
53299;SDS011;39187;48.476;8.310;2023-06-10T04:15:59;8.70;;;7.97;;
53299;SDS011;39187;48.476;8.310;2023-06-10T04:18:25;9.50;;;8.90;;
53299;SDS011;39187;48.476;8.310;2023-06-10T04:20:51;8.80;;;8.10;;
53299;SDS011;39187;48.476;8.310;2023-06-10T04:23:16;8.77;;;8.13;;
53299;SDS011;39187;48.476;8.310;2023-06-10T04:25:42;9.20;;;8.33;;
53299;SDS011;39187;48.476;8.310;2023-06-10T04:28:08;8.50;;;8.07;;
53299;SDS011;39187;48.476;8.310;2023-06-10T04:30:33;8.80;;;8.30;;
53299;SDS011;39187;48.476;8.310;2023-06-10T04:32:59;8.60;;;8.00;;
53299;SDS011;39187;48.476;8.310;2023-06-10T04:35:24;8.20;;;7.60;;
53299;SDS011;39187;48.476;8.310;2023-06-10T04:37:53;9.17;;;8.57;;
53299;SDS011;39187;48.476;8.310;2023-06-10T04:40:18;7.97;;;7.57;;
53299;SDS011;39187;48.476;8.310;2023-06-10T04:42:44;9.13;;;8.30;;
53299;SDS011;39187;48.476;8.310;2023-06-10T04:45:10;8.03;;;7.43;;
53299;SDS011;39187;48.476;8.310;2023-06-10T04:47:36;8.47;;;7.87;;
53299;SDS011;39187;48.476;8.310;2023-06-10T04:50:02;8.90;;;8.40;;
53299;SDS011;39187;48.476;8.310;2023-06-10T04:52:28;8.27;;;7.70;;
53299;SDS011;39187;48.476;8.310;2023-06-10T04:54:54;7.73;;;6.97;;
53299;SDS011;39187;48.476;8.310;2023-06-10T04:57:19;7.60;;;7.20;;
53299;SDS011;39187;48.476;8.310;2023-06-10T04:59:46;8.20;;;7.80;;
53299;SDS011;39187;48.476;8.310;2023-06-10T05:02:12;7.93;;;7.33;;
53299;SDS011;39187;48.476;8.310;2023-06-10T05:04:37;7.80;;;7.30;;
53299;SDS011;39187;48.476;8.310;2023-06-10T05:07:03;8.53;;;8.13;;
53299;SDS011;39187;48.476;8.310;2023-06-10T05:09:28;8.80;;;8.00;;
53299;SDS011;39187;48.476;8.310;2023-06-10T05:11:55;8.43;;;8.00;;
53299;SDS011;39187;48.476;8.310;2023-06-10T05:14:21;7.60;;;7.10;;
53299;SDS011;39187;48.476;8.310;2023-06-10T05:16:47;7.80;;;7.40;;
53299;SDS011;39187;48.476;8.310;2023-06-10T05:19:13;8.10;;;7.63;;
53299;SDS011;39187;48.476;8.310;2023-06-10T05:21:38;7.43;;;6.70;;
53299;SDS011;39187;48.476;8.310;2023-06-10T05:24:04;7.53;;;7.03;;
53299;SDS011;39187;48.476;8.310;2023-06-10T05:26:30;7.37;;;6.87;;
53299;SDS011;39187;48.476;8.310;2023-06-10T05:28:57;7.97;;;7.47;;
53299;SDS011;39187;48.476;8.310;2023-06-10T05:31:23;7.20;;;6.80;;
53299;SDS011;39187;48.476;8.310;2023-06-10T05:33:49;8.50;;;8.10;;
53299;SDS011;39187;48.476;8.310;2023-06-10T05:36:14;8.80;;;8.20;;
53299;SDS011;39187;48.476;8.310;2023-06-10T05:38:40;7.77;;;7.47;;
53299;SDS011;39187;48.476;8.310;2023-06-10T05:41:06;6.87;;;6.57;;
53299;SDS011;39187;48.476;8.310;2023-06-10T05:43:31;8.70;;;8.20;;
53299;SDS011;39187;48.476;8.310;2023-06-10T05:45:57;7.63;;;7.10;;
53299;SDS011;39187;48.476;8.310;2023-06-10T05:48:22;8.17;;;7.80;;
53299;SDS011;39187;48.476;8.310;2023-06-10T05:50:48;8.70;;;8.20;;
53299;SDS011;39187;48.476;8.310;2023-06-10T05:53:14;8.10;;;7.80;;
53299;SDS011;39187;48.476;8.310;2023-06-10T05:55:41;6.93;;;6.63;;
53299;SDS011;39187;48.476;8.310;2023-06-10T05:58:08;7.07;;;6.77;;
53299;SDS011;39187;48.476;8.310;2023-06-10T06:00:34;8.40;;;7.93;;
53299;SDS011;39187;48.476;8.310;2023-06-10T06:02:59;8.43;;;8.03;;
53299;SDS011;39187;48.476;8.310;2023-06-10T06:05:25;7.80;;;7.50;;
53299;SDS011;39187;48.476;8.310;2023-06-10T06:07:50;6.77;;;6.47;;
53299;SDS011;39187;48.476;8.310;2023-06-10T06:10:17;7.27;;;6.87;;
53299;SDS011;39187;48.476;8.310;2023-06-10T06:12:43;7.50;;;7.10;;
53299;SDS011;39187;48.476;8.310;2023-06-10T06:15:09;7.23;;;6.73;;
53299;SDS011;39187;48.476;8.310;2023-06-10T06:17:35;7.07;;;6.60;;
53299;SDS011;39187;48.476;8.310;2023-06-10T06:20:02;8.90;;;8.30;;
53299;SDS011;39187;48.476;8.310;2023-06-10T06:22:28;7.97;;;7.60;;
53299;SDS011;39187;48.476;8.310;2023-06-10T06:24:54;7.77;;;7.47;;
53299;SDS011;39187;48.476;8.310;2023-06-10T06:27:20;7.93;;;7.60;;
53299;SDS011;39187;48.476;8.310;2023-06-10T06:29:46;7.73;;;7.13;;
53299;SDS011;39187;48.476;8.310;2023-06-10T06:32:12;8.23;;;7.90;;
53299;SDS011;39187;48.476;8.310;2023-06-10T06:34:37;6.83;;;6.50;;
53299;SDS011;39187;48.476;8.310;2023-06-10T06:37:03;7.40;;;6.90;;
53299;SDS011;39187;48.476;8.310;2023-06-10T06:39:31;8.53;;;7.90;;
53299;SDS011;39187;48.476;8.310;2023-06-10T06:41:58;8.20;;;7.73;;
53299;SDS011;39187;48.476;8.310;2023-06-10T06:44:23;7.63;;;7.33;;
53299;SDS011;39187;48.476;8.310;2023-06-10T06:46:49;7.77;;;7.27;;
53299;SDS011;39187;48.476;8.310;2023-06-10T06:49:14;7.77;;;7.47;;
53299;SDS011;39187;48.476;8.310;2023-06-10T06:51:40;9.20;;;8.53;;
53299;SDS011;39187;48.476;8.310;2023-06-10T06:54:05;7.40;;;7.10;;
53299;SDS011;39187;48.476;8.310;2023-06-10T06:56:31;8.17;;;7.77;;
53299;SDS011;39187;48.476;8.310;2023-06-10T06:58:56;7.53;;;7.20;;
53299;SDS011;39187;48.476;8.310;2023-06-10T07:01:22;8.23;;;7.43;;
53299;SDS011;39187;48.476;8.310;2023-06-10T07:03:47;8.80;;;8.30;;
53299;SDS011;39187;48.476;8.310;2023-06-10T07:06:13;7.57;;;6.97;;
53299;SDS011;39187;48.476;8.310;2023-06-10T07:08:39;8.27;;;7.73;;
53299;SDS011;39187;48.476;8.310;2023-06-10T07:11:04;8.10;;;7.50;;
53299;SDS011;39187;48.476;8.310;2023-06-10T07:13:30;8.27;;;7.67;;
53299;SDS011;39187;48.476;8.310;2023-06-10T07:15:55;6.53;;;6.07;;
53299;SDS011;39187;48.476;8.310;2023-06-10T07:18:21;6.30;;;6.10;;
53299;SDS011;39187;48.476;8.310;2023-06-10T07:20:46;6.17;;;5.97;;
53299;SDS011;39187;48.476;8.310;2023-06-10T07:23:12;6.20;;;5.80;;
53299;SDS011;39187;48.476;8.310;2023-06-10T07:25:37;6.67;;;6.37;;
53299;SDS011;39187;48.476;8.310;2023-06-10T07:28:03;6.00;;;5.67;;
53299;SDS011;39187;48.476;8.310;2023-06-10T07:30:29;6.17;;;5.97;;
53299;SDS011;39187;48.476;8.310;2023-06-10T07:32:54;6.10;;;5.77;;
53299;SDS011;39187;48.476;8.310;2023-06-10T07:35:20;5.63;;;5.43;;
53299;SDS011;39187;48.476;8.310;2023-06-10T07:37:46;5.40;;;5.20;;
53299;SDS011;39187;48.476;8.310;2023-06-10T07:40:11;5.33;;;5.03;;
53299;SDS011;39187;48.476;8.310;2023-06-10T07:42:37;5.90;;;5.60;;
53299;SDS011;39187;48.476;8.310;2023-06-10T07:45:03;6.73;;;6.43;;
53299;SDS011;39187;48.476;8.310;2023-06-10T07:47:29;5.70;;;5.30;;
53299;SDS011;39187;48.476;8.310;2023-06-10T07:49:55;7.10;;;6.60;;
53299;SDS011;39187;48.476;8.310;2023-06-10T07:52:21;7.00;;;6.70;;
53299;SDS011;39187;48.476;8.310;2023-06-10T07:54:46;6.70;;;6.40;;
53299;SDS011;39187;48.476;8.310;2023-06-10T07:57:12;7.90;;;7.50;;
53299;SDS011;39187;48.476;8.310;2023-06-10T07:59:37;7.23;;;6.93;;
53299;SDS011;39187;48.476;8.310;2023-06-10T08:02:03;7.73;;;7.23;;
53299;SDS011;39187;48.476;8.310;2023-06-10T08:04:29;7.60;;;7.10;;
53299;SDS011;39187;48.476;8.310;2023-06-10T08:06:56;8.20;;;7.40;;
53299;SDS011;39187;48.476;8.310;2023-06-10T08:09:21;8.17;;;7.77;;
53299;SDS011;39187;48.476;8.310;2023-06-10T08:11:48;6.50;;;6.23;;
53299;SDS011;39187;48.476;8.310;2023-06-10T08:14:14;7.13;;;6.90;;
53299;SDS011;39187;48.476;8.310;2023-06-10T08:16:41;7.83;;;7.23;;
53299;SDS011;39187;48.476;8.310;2023-06-10T08:19:06;8.27;;;7.90;;
53299;SDS011;39187;48.476;8.310;2023-06-10T08:21:34;7.67;;;7.30;;
53299;SDS011;39187;48.476;8.310;2023-06-10T08:24:02;7.23;;;6.80;;
53299;SDS011;39187;48.476;8.310;2023-06-10T08:26:28;7.40;;;7.10;;
53299;SDS011;39187;48.476;8.310;2023-06-10T08:28:54;7.03;;;6.73;;
53299;SDS011;39187;48.476;8.310;2023-06-10T08:31:20;8.23;;;7.80;;
53299;SDS011;39187;48.476;8.310;2023-06-10T08:33:46;7.60;;;7.20;;
53299;SDS011;39187;48.476;8.310;2023-06-10T08:36:12;7.70;;;7.30;;
53299;SDS011;39187;48.476;8.310;2023-06-10T08:38:38;7.03;;;6.77;;
53299;SDS011;39187;48.476;8.310;2023-06-10T08:41:04;7.27;;;7.00;;
53299;SDS011;39187;48.476;8.310;2023-06-10T08:43:45;7.97;;;7.57;;
53299;SDS011;39187;48.476;8.310;2023-06-10T08:46:22;7.10;;;6.80;;
53299;SDS011;39187;48.476;8.310;2023-06-10T08:48:48;8.77;;;7.90;;
53299;SDS011;39187;48.476;8.310;2023-06-10T08:51:18;7.03;;;6.40;;
53299;SDS011;39187;48.476;8.310;2023-06-10T08:53:48;7.20;;;6.80;;
53299;SDS011;39187;48.476;8.310;2023-06-10T08:56:18;7.10;;;6.70;;
53299;SDS011;39187;48.476;8.310;2023-06-10T08:58:46;6.90;;;6.53;;
53299;SDS011;39187;48.476;8.310;2023-06-10T09:01:13;6.10;;;5.80;;
53299;SDS011;39187;48.476;8.310;2023-06-10T09:03:39;6.47;;;6.27;;
53299;SDS011;39187;48.476;8.310;2023-06-10T09:06:05;5.80;;;5.60;;
53299;SDS011;39187;48.476;8.310;2023-06-10T09:08:32;5.73;;;5.53;;
53299;SDS011;39187;48.476;8.310;2023-06-10T09:10:58;6.23;;;4.30;;
53299;SDS011;39187;48.476;8.310;2023-06-10T09:13:24;5.23;;;5.03;;
53299;SDS011;39187;48.476;8.310;2023-06-10T09:15:49;4.73;;;4.57;;
53299;SDS011;39187;48.476;8.310;2023-06-10T09:18:16;5.73;;;5.43;;
53299;SDS011;39187;48.476;8.310;2023-06-10T09:20:42;5.20;;;5.00;;
53299;SDS011;39187;48.476;8.310;2023-06-10T09:23:08;5.80;;;5.60;;
53299;SDS011;39187;48.476;8.310;2023-06-10T09:25:35;8.87;;;8.37;;
53299;SDS011;39187;48.476;8.310;2023-06-10T09:28:02;4.70;;;4.50;;
53299;SDS011;39187;48.476;8.310;2023-06-10T09:30:32;4.50;;;4.30;;
53299;SDS011;39187;48.476;8.310;2023-06-10T09:33:03;4.40;;;4.30;;
53299;SDS011;39187;48.476;8.310;2023-06-10T09:35:35;5.47;;;5.07;;
53299;SDS011;39187;48.476;8.310;2023-06-10T09:38:01;4.40;;;4.20;;
53299;SDS011;39187;48.476;8.310;2023-06-10T09:40:27;4.80;;;4.60;;
53299;SDS011;39187;48.476;8.310;2023-06-10T09:42:54;5.10;;;4.90;;
53299;SDS011;39187;48.476;8.310;2023-06-10T09:45:27;4.27;;;4.10;;
53299;SDS011;39187;48.476;8.310;2023-06-10T09:47:56;5.30;;;5.00;;
53299;SDS011;39187;48.476;8.310;2023-06-10T09:50:22;5.40;;;5.20;;
53299;SDS011;39187;48.476;8.310;2023-06-10T09:52:48;4.63;;;4.53;;
53299;SDS011;39187;48.476;8.310;2023-06-10T09:55:13;4.67;;;4.47;;
53299;SDS011;39187;48.476;8.310;2023-06-10T09:57:39;4.67;;;4.50;;
53299;SDS011;39187;48.476;8.310;2023-06-10T10:00:07;7.83;;;5.27;;
53299;SDS011;39187;48.476;8.310;2023-06-10T10:02:47;3.60;;;3.50;;
53299;SDS011;39187;48.476;8.310;2023-06-10T10:05:15;4.90;;;4.60;;
53299;SDS011;39187;48.476;8.310;2023-06-10T10:07:42;4.30;;;4.20;;
53299;SDS011;39187;48.476;8.310;2023-06-10T10:10:09;4.93;;;4.73;;
53299;SDS011;39187;48.476;8.310;2023-06-10T10:12:37;4.37;;;4.17;;
53299;SDS011;39187;48.476;8.310;2023-06-10T10:15:05;4.90;;;4.70;;
53299;SDS011;39187;48.476;8.310;2023-06-10T10:17:34;4.60;;;4.40;;
53299;SDS011;39187;48.476;8.310;2023-06-10T10:20:05;4.40;;;4.20;;
53299;SDS011;39187;48.476;8.310;2023-06-10T10:22:38;4.13;;;4.03;;
53299;SDS011;39187;48.476;8.310;2023-06-10T10:25:08;4.77;;;4.60;;
53299;SDS011;39187;48.476;8.310;2023-06-10T10:27:39;3.90;;;3.80;;
53299;SDS011;39187;48.476;8.310;2023-06-10T10:30:09;4.47;;;4.37;;
53299;SDS011;39187;48.476;8.310;2023-06-10T10:32:43;3.70;;;3.50;;
53299;SDS011;39187;48.476;8.310;2023-06-10T10:35:17;3.10;;;2.90;;
53299;SDS011;39187;48.476;8.310;2023-06-10T10:37:51;2.70;;;2.60;;
53299;SDS011;39187;48.476;8.310;2023-06-10T10:40:17;3.43;;;3.33;;
53299;SDS011;39187;48.476;8.310;2023-06-10T10:42:45;3.80;;;3.70;;
53299;SDS011;39187;48.476;8.310;2023-06-10T10:45:13;3.60;;;3.50;;
53299;SDS011;39187;48.476;8.310;2023-06-10T10:47:39;4.23;;;4.00;;
53299;SDS011;39187;48.476;8.310;2023-06-10T10:50:12;4.47;;;4.17;;
53299;SDS011;39187;48.476;8.310;2023-06-10T10:53:13;4.53;;;4.23;;
53299;SDS011;39187;48.476;8.310;2023-06-10T10:55:32;4.50;;;4.20;;
53299;SDS011;39187;48.476;8.310;2023-06-10T10:58:07;4.27;;;4.07;;
53299;SDS011;39187;48.476;8.310;2023-06-10T11:00:34;4.77;;;4.57;;
53299;SDS011;39187;48.476;8.310;2023-06-10T11:03:13;3.87;;;3.77;;
53299;SDS011;39187;48.476;8.310;2023-06-10T11:05:42;3.63;;;3.53;;
53299;SDS011;39187;48.476;8.310;2023-06-10T11:08:16;4.50;;;4.20;;
53299;SDS011;39187;48.476;8.310;2023-06-10T11:11:01;4.37;;;4.27;;
53299;SDS011;39187;48.476;8.310;2023-06-10T11:16:27;4.57;;;4.37;;
53299;SDS011;39187;48.476;8.310;2023-06-10T11:18:54;4.50;;;4.30;;
53299;SDS011;39187;48.476;8.310;2023-06-10T11:21:22;3.83;;;3.73;;
53299;SDS011;39187;48.476;8.310;2023-06-10T11:23:49;4.80;;;4.57;;
53299;SDS011;39187;48.476;8.310;2023-06-10T11:28:41;3.77;;;3.37;;
53299;SDS011;39187;48.476;8.310;2023-06-10T11:31:27;4.23;;;4.07;;
53299;SDS011;39187;48.476;8.310;2023-06-10T11:33:53;4.67;;;4.30;;
53299;SDS011;39187;48.476;8.310;2023-06-10T11:36:20;4.73;;;4.27;;
53299;SDS011;39187;48.476;8.310;2023-06-10T11:38:46;4.30;;;3.90;;
53299;SDS011;39187;48.476;8.310;2023-06-10T11:41:13;3.90;;;3.70;;
53299;SDS011;39187;48.476;8.310;2023-06-10T11:43:45;4.03;;;3.93;;
53299;SDS011;39187;48.476;8.310;2023-06-10T11:46:12;4.83;;;4.70;;
53299;SDS011;39187;48.476;8.310;2023-06-10T11:48:39;4.27;;;4.07;;
53299;SDS011;39187;48.476;8.310;2023-06-10T11:51:13;4.80;;;4.50;;
53299;SDS011;39187;48.476;8.310;2023-06-10T11:53:38;4.90;;;4.50;;
53299;SDS011;39187;48.476;8.310;2023-06-10T11:56:04;4.83;;;4.67;;
53299;SDS011;39187;48.476;8.310;2023-06-10T11:58:30;4.37;;;4.07;;
53299;SDS011;39187;48.476;8.310;2023-06-10T12:00:55;4.83;;;4.73;;
53299;SDS011;39187;48.476;8.310;2023-06-10T12:03:23;4.20;;;4.10;;
53299;SDS011;39187;48.476;8.310;2023-06-10T12:08:21;6.63;;;5.17;;
53299;SDS011;39187;48.476;8.310;2023-06-10T12:10:48;5.20;;;5.00;;
53299;SDS011;39187;48.476;8.310;2023-06-10T12:13:13;4.47;;;4.33;;
53299;SDS011;39187;48.476;8.310;2023-06-10T12:15:39;4.93;;;4.70;;
53299;SDS011;39187;48.476;8.310;2023-06-10T12:18:05;4.50;;;4.30;;
53299;SDS011;39187;48.476;8.310;2023-06-10T12:20:31;4.50;;;4.30;;
53299;SDS011;39187;48.476;8.310;2023-06-10T12:23:08;4.40;;;4.27;;
53299;SDS011;39187;48.476;8.310;2023-06-10T12:25:34;4.73;;;4.40;;
53299;SDS011;39187;48.476;8.310;2023-06-10T12:28:02;5.40;;;5.20;;
53299;SDS011;39187;48.476;8.310;2023-06-10T12:30:28;5.40;;;5.10;;
53299;SDS011;39187;48.476;8.310;2023-06-10T12:32:54;7.30;;;4.70;;
53299;SDS011;39187;48.476;8.310;2023-06-10T12:35:27;4.17;;;4.07;;
53299;SDS011;39187;48.476;8.310;2023-06-10T12:38:00;4.30;;;4.20;;
53299;SDS011;39187;48.476;8.310;2023-06-10T12:40:30;4.67;;;4.57;;
53299;SDS011;39187;48.476;8.310;2023-06-10T12:42:57;4.77;;;4.20;;
53299;SDS011;39187;48.476;8.310;2023-06-10T12:45:33;5.90;;;5.60;;
53299;SDS011;39187;48.476;8.310;2023-06-10T12:50:36;4.83;;;4.63;;
53299;SDS011;39187;48.476;8.310;2023-06-10T12:53:04;5.30;;;4.80;;
53299;SDS011;39187;48.476;8.310;2023-06-10T12:55:30;4.87;;;4.57;;
53299;SDS011;39187;48.476;8.310;2023-06-10T12:57:57;5.23;;;5.03;;
53299;SDS011;39187;48.476;8.310;2023-06-10T13:00:23;5.50;;;5.30;;
53299;SDS011;39187;48.476;8.310;2023-06-10T13:02:54;5.27;;;4.93;;
53299;SDS011;39187;48.476;8.310;2023-06-10T13:05:21;4.60;;;4.50;;
53299;SDS011;39187;48.476;8.310;2023-06-10T13:07:46;5.20;;;5.00;;
53299;SDS011;39187;48.476;8.310;2023-06-10T13:10:15;5.20;;;5.00;;
53299;SDS011;39187;48.476;8.310;2023-06-10T13:12:42;4.80;;;4.57;;
53299;SDS011;39187;48.476;8.310;2023-06-10T13:15:08;5.73;;;5.37;;
53299;SDS011;39187;48.476;8.310;2023-06-10T13:17:35;5.50;;;5.30;;
53299;SDS011;39187;48.476;8.310;2023-06-10T13:20:03;5.60;;;5.40;;
53299;SDS011;39187;48.476;8.310;2023-06-10T13:22:30;4.90;;;4.70;;
53299;SDS011;39187;48.476;8.310;2023-06-10T13:24:58;4.87;;;4.47;;
53299;SDS011;39187;48.476;8.310;2023-06-10T13:27:24;4.30;;;4.10;;
53299;SDS011;39187;48.476;8.310;2023-06-10T13:29:50;4.37;;;4.17;;
53299;SDS011;39187;48.476;8.310;2023-06-10T13:32:15;4.53;;;4.33;;
53299;SDS011;39187;48.476;8.310;2023-06-10T13:34:41;5.30;;;5.10;;
53299;SDS011;39187;48.476;8.310;2023-06-10T13:37:06;5.10;;;4.90;;
53299;SDS011;39187;48.476;8.310;2023-06-10T13:39:32;4.20;;;4.00;;
53299;SDS011;39187;48.476;8.310;2023-06-10T13:41:57;4.77;;;4.40;;
53299;SDS011;39187;48.476;8.310;2023-06-10T13:44:23;5.23;;;4.87;;
53299;SDS011;39187;48.476;8.310;2023-06-10T13:46:48;5.27;;;5.07;;
53299;SDS011;39187;48.476;8.310;2023-06-10T13:49:14;4.93;;;4.83;;
53299;SDS011;39187;48.476;8.310;2023-06-10T13:51:39;4.97;;;4.77;;
53299;SDS011;39187;48.476;8.310;2023-06-10T13:54:05;4.90;;;4.70;;
53299;SDS011;39187;48.476;8.310;2023-06-10T13:56:30;5.00;;;4.80;;
53299;SDS011;39187;48.476;8.310;2023-06-10T13:58:56;4.97;;;4.70;;
53299;SDS011;39187;48.476;8.310;2023-06-10T14:01:21;4.63;;;4.43;;
53299;SDS011;39187;48.476;8.310;2023-06-10T14:03:47;5.13;;;4.93;;
53299;SDS011;39187;48.476;8.310;2023-06-10T14:06:13;5.03;;;4.83;;
53299;SDS011;39187;48.476;8.310;2023-06-10T14:08:43;4.53;;;4.30;;
53299;SDS011;39187;48.476;8.310;2023-06-10T14:11:09;5.10;;;4.90;;
53299;SDS011;39187;48.476;8.310;2023-06-10T14:13:34;5.30;;;5.10;;
53299;SDS011;39187;48.476;8.310;2023-06-10T14:15:59;5.13;;;4.93;;
53299;SDS011;39187;48.476;8.310;2023-06-10T14:18:27;6.03;;;5.67;;
53299;SDS011;39187;48.476;8.310;2023-06-10T14:20:53;5.80;;;5.47;;
53299;SDS011;39187;48.476;8.310;2023-06-10T14:23:19;4.90;;;4.70;;
53299;SDS011;39187;48.476;8.310;2023-06-10T14:25:44;5.23;;;4.57;;
53299;SDS011;39187;48.476;8.310;2023-06-10T14:28:09;4.00;;;3.90;;
53299;SDS011;39187;48.476;8.310;2023-06-10T14:30:35;4.63;;;4.37;;
53299;SDS011;39187;48.476;8.310;2023-06-10T14:33:00;4.97;;;4.50;;
53299;SDS011;39187;48.476;8.310;2023-06-10T14:35:26;5.50;;;4.70;;
53299;SDS011;39187;48.476;8.310;2023-06-10T14:37:52;4.57;;;4.37;;
53299;SDS011;39187;48.476;8.310;2023-06-10T14:40:17;4.53;;;4.43;;
53299;SDS011;39187;48.476;8.310;2023-06-10T14:42:43;4.77;;;4.67;;
53299;SDS011;39187;48.476;8.310;2023-06-10T14:45:08;5.50;;;5.20;;
53299;SDS011;39187;48.476;8.310;2023-06-10T14:47:35;6.60;;;6.20;;
53299;SDS011;39187;48.476;8.310;2023-06-10T14:50:00;5.43;;;5.23;;
53299;SDS011;39187;48.476;8.310;2023-06-10T14:52:26;4.70;;;4.60;;
53299;SDS011;39187;48.476;8.310;2023-06-10T14:54:51;5.60;;;5.20;;
53299;SDS011;39187;48.476;8.310;2023-06-10T14:57:17;6.40;;;6.10;;
53299;SDS011;39187;48.476;8.310;2023-06-10T14:59:42;5.57;;;5.27;;
53299;SDS011;39187;48.476;8.310;2023-06-10T15:02:08;6.00;;;5.73;;